createdAt,value
2022-11-07T00:02:32.459Z,1.61047
2022-11-07T00:07:34.099Z,0.8661
2022-11-07T00:12:35.721Z,1.23543
2022-11-07T00:17:37.461Z,1.13412
2022-11-07T00:22:39.193Z,1.3615
2022-11-07T00:27:40.847Z,1.29005
2022-11-07T00:32:42.570Z,0.60252
2022-11-07T00:37:44.232Z,0.9566
2022-11-07T00:42:45.883Z,0.78671
2022-11-07T00:47:47.579Z,0.27924
2022-11-07T00:52:49.306Z,0.70446
2022-11-07T00:57:51.041Z,0.98074
2022-11-07T01:02:52.819Z,0.50916
2022-11-07T01:07:55.097Z,0.66476
2022-11-07T01:12:56.732Z,0.75432
2022-11-07T01:17:58.516Z,0.48661
2022-11-07T01:23:00.168Z,0.27829
2022-11-07T01:28:01.791Z,0.3888
2022-11-07T01:33:03.491Z,-0.23172
2022-11-07T01:38:05.295Z,0.36466
2022-11-07T01:43:06.912Z,0.56124
2022-11-07T01:48:08.604Z,-0.06405
2022-11-07T01:53:10.302Z,-0.30507
2022-11-07T01:58:11.915Z,-0.20314
2022-11-07T02:03:13.937Z,0.87658
2022-11-07T02:08:15.881Z,0.53424
2022-11-07T02:13:17.614Z,0.61681
2022-11-07T02:18:19.237Z,1.01313
2022-11-07T02:23:21.017Z,1.01027
2022-11-07T02:28:22.673Z,0.2224
2022-11-07T02:33:24.386Z,0.49645
2022-11-07T02:38:25.998Z,0.57648
2022-11-07T02:43:27.673Z,0.56536
2022-11-07T02:48:29.426Z,0.72732
2022-11-07T02:53:31.093Z,0.98519
2022-11-07T02:58:32.768Z,1.34848
2022-11-07T03:03:34.468Z,0.70287
2022-11-07T03:08:36.168Z,0.67238
2022-11-07T03:13:37.814Z,1.10554
2022-11-07T03:18:39.493Z,0.79814
2022-11-07T03:23:41.207Z,1.05219
2022-11-07T03:28:42.855Z,1.19414
2022-11-07T03:33:46.583Z,1.23098
2022-11-07T03:38:48.224Z,1.34213
2022-11-07T03:43:49.900Z,0.85054
2022-11-07T03:48:51.533Z,1.21161
2022-11-07T03:53:53.116Z,0.93819
2022-11-07T03:58:54.726Z,0.97185
2022-11-07T04:03:56.562Z,0.67651
2022-11-07T04:08:58.259Z,0.76448
2022-11-07T04:13:59.918Z,0.63015
2022-11-07T04:19:01.793Z,0.49137
2022-11-07T04:24:03.474Z,0.95533
2022-11-07T04:29:05.260Z,0.70065
2022-11-07T04:34:06.950Z,0.94994
2022-11-07T04:39:08.583Z,0.9023
2022-11-07T04:44:10.424Z,1.22209
2022-11-07T04:49:12.393Z,1.04298
2022-11-07T04:54:14.120Z,0.72955
2022-11-07T04:59:15.797Z,-0.14852
2022-11-07T05:04:17.962Z,0.2694
2022-11-07T05:09:19.719Z,0.51392
2022-11-07T05:14:21.690Z,0.3545
2022-11-07T05:19:23.559Z,0.02614
2022-11-07T05:24:25.179Z,-0.31524
2022-11-07T05:29:26.855Z,-0.34795
2022-11-07T05:34:28.668Z,-0.23394
2022-11-07T05:39:33.725Z,0.0236
2022-11-07T05:44:35.372Z,-0.25617
2022-11-07T05:49:37.063Z,0.07282
2022-11-07T05:54:38.841Z,0.94263
2022-11-07T05:59:40.438Z,0.6238
2022-11-07T06:04:42.174Z,0.94644
2022-11-07T06:09:43.911Z,0.98963
2022-11-07T06:14:45.918Z,1.25956
2022-11-07T06:19:47.660Z,1.2151
2022-11-07T06:24:49.398Z,1.25829
2022-11-07T06:29:51.260Z,1.05029
2022-11-07T06:34:52.840Z,0.91278
2022-11-07T06:39:54.548Z,0.99916
2022-11-07T06:44:56.209Z,0.4882
2022-11-07T06:49:57.875Z,1.4301
2022-11-07T06:54:59.547Z,0.7829
2022-11-07T07:00:01.573Z,1.27703
2022-11-07T07:05:03.451Z,1.08236
2022-11-07T07:10:05.076Z,1.08046
2022-11-07T07:15:07.156Z,1.08331
2022-11-07T07:20:08.899Z,1.53648
2022-11-07T07:25:10.606Z,0.48724
2022-11-07T07:30:12.415Z,1.02202
2022-11-07T07:35:14.045Z,1.11285
2022-11-07T07:40:16.156Z,1.0306
2022-11-07T07:45:17.871Z,1.51584
2022-11-07T07:50:19.535Z,0.91881
2022-11-07T07:55:21.127Z,1.13603
2022-11-07T08:00:22.768Z,0.98773
2022-11-07T08:05:24.470Z,1.13857
2022-11-07T08:10:41.001Z,0.91723
2022-11-07T08:15:44.010Z,0.05441
2022-11-07T08:20:45.657Z,0.17349
2022-11-07T08:25:47.306Z,-0.02816
2022-11-07T08:30:49.046Z,-0.09898
2022-11-07T08:35:50.665Z,0.07981
2022-11-07T08:40:52.307Z,0.14015
2022-11-07T08:45:53.986Z,0.36625
2022-11-07T08:50:55.626Z,0.50566
2022-11-07T08:55:57.372Z,0.38816
2022-11-07T09:00:59.175Z,-0.06881
2022-11-07T09:06:00.942Z,-0.40669
2022-11-07T09:11:02.736Z,-0.6039
2022-11-07T09:16:04.714Z,-0.50387
2022-11-07T09:21:06.522Z,-0.47973
2022-11-07T09:26:08.227Z,0.04678
2022-11-07T09:31:09.850Z,-0.14598
2022-11-07T09:36:11.652Z,0.01185
2022-11-07T09:41:13.444Z,-0.87033
2022-11-07T09:46:15.130Z,-1.8681
2022-11-07T09:51:16.748Z,-1.93574
2022-11-07T09:56:18.373Z,-0.78046
2022-11-07T10:01:20.283Z,-1.14502
2022-11-07T10:06:24.374Z,-2.0256
2022-11-07T10:11:26.279Z,-2.1955
2022-11-07T10:16:27.895Z,-1.54959
2022-11-07T10:21:38.472Z,-2.34792
2022-11-07T10:26:40.932Z,-2.66421
2022-11-07T10:31:42.773Z,-3.26343
2022-11-07T10:36:44.569Z,-3.14625
2022-11-07T10:41:46.446Z,-2.6731
2022-11-07T10:46:51.542Z,-2.51781
2022-11-07T10:51:56.559Z,-2.66579
2022-11-07T10:56:58.170Z,-2.55655
2022-11-07T11:01:59.904Z,-2.20756
2022-11-07T11:07:01.557Z,-1.89128
2022-11-07T11:12:03.178Z,-1.94177
2022-11-07T11:17:04.970Z,-2.61149
2022-11-07T11:22:09.598Z,-2.68612
2022-11-07T11:27:11.580Z,-2.43874
2022-11-07T11:32:13.506Z,-1.34286
2022-11-07T11:37:15.129Z,-1.99829
2022-11-07T11:42:16.860Z,-2.06054
2022-11-07T11:47:18.605Z,-1.69884
2022-11-07T11:52:20.320Z,-2.43461
2022-11-07T11:57:22.828Z,-2.64483
2022-11-07T12:02:24.731Z,-2.61086
2022-11-07T12:07:26.420Z,-2.22408
2022-11-07T12:12:28.041Z,-2.18533
2022-11-07T12:17:29.664Z,-2.11706
2022-11-07T12:22:31.313Z,-2.73057
2022-11-07T12:27:33.073Z,-1.97226
2022-11-07T12:32:34.732Z,-2.46478
2022-11-07T12:37:36.375Z,-2.9627
2022-11-07T12:42:38.089Z,-3.48698
2022-11-07T12:47:39.755Z,-2.97033
2022-11-07T12:52:41.436Z,-3.18118
2022-11-07T12:57:43.099Z,-2.93381
2022-11-07T13:02:44.938Z,-2.77535
2022-11-07T13:07:46.568Z,-2.81631
2022-11-07T13:12:48.216Z,-2.71851
2022-11-07T13:17:49.946Z,-2.81822
2022-11-07T13:22:51.514Z,-2.57847
2022-11-07T13:27:53.363Z,-2.91285
2022-11-07T13:32:57.041Z,-2.01163
2022-11-07T13:37:58.704Z,-1.85222
2022-11-07T13:43:00.329Z,-2.06117
2022-11-07T13:48:01.989Z,-3.13863
2022-11-07T13:53:03.650Z,-2.72263
2022-11-07T13:58:05.400Z,-2.6731
2022-11-07T14:03:07.088Z,-2.88522
2022-11-07T14:08:08.741Z,-2.38539
2022-11-07T14:13:10.462Z,-2.54004
2022-11-07T14:18:12.230Z,-2.63944
2022-11-07T14:23:13.931Z,-2.9808
2022-11-07T14:28:16.026Z,-3.08464
2022-11-07T14:33:17.957Z,-2.88078
2022-11-07T14:38:20.035Z,-3.68735
2022-11-07T14:43:21.912Z,-3.03765
2022-11-07T14:48:23.530Z,-3.17165
2022-11-07T14:53:25.201Z,-3.23516
2022-11-07T14:58:26.944Z,-3.01319
2022-11-07T15:03:28.658Z,-4.26275
2022-11-07T15:08:35.401Z,-4.27164
2022-11-07T15:13:37.229Z,-3.97728
2022-11-07T15:18:38.889Z,-3.25549
2022-11-07T15:23:40.508Z,-3.06146
2022-11-07T15:28:42.185Z,-2.9608
2022-11-07T15:33:43.903Z,-3.78643
2022-11-07T15:38:45.534Z,-3.33646
2022-11-07T15:43:47.135Z,-3.83628
2022-11-07T15:48:48.811Z,-3.76039
2022-11-07T15:53:50.515Z,-3.24755
2022-11-07T15:59:04.939Z,-3.00272
2022-11-07T16:04:07.875Z,-2.67977
2022-11-07T16:09:09.480Z,-2.62229
2022-11-07T16:14:38.080Z,-2.85347
2022-11-07T16:19:45.148Z,-2.21042
2022-11-07T16:24:46.784Z,-2.20598
2022-11-07T16:29:48.381Z,-3.30979
2022-11-07T16:34:50.089Z,-3.46031
2022-11-07T16:45:02.597Z,-3.69466
2022-11-07T16:50:04.274Z,-3.2647
2022-11-07T16:55:05.958Z,-2.57275
2022-11-07T17:00:07.785Z,-3.05575
2022-11-07T17:05:09.459Z,-2.82933
2022-11-07T17:10:11.128Z,-2.20216
2022-11-07T17:15:13.127Z,-1.54578
2022-11-07T17:20:28.395Z,-2.29235
2022-11-07T17:25:42.740Z,-1.81475
2022-11-07T17:30:44.946Z,-2.45081
2022-11-07T17:35:46.566Z,-2.88173
2022-11-07T17:40:48.151Z,-3.35075
2022-11-07T17:45:49.843Z,-3.92107
2022-11-07T17:50:51.495Z,-4.00586
2022-11-07T17:55:53.167Z,-3.40664
2022-11-07T18:00:54.837Z,-3.11767
2022-11-07T18:05:56.557Z,-3.86836
2022-11-07T18:10:58.192Z,-2.74772
2022-11-07T18:15:59.859Z,-3.23262
2022-11-07T18:21:01.599Z,-3.4149
2022-11-07T18:26:03.202Z,-3.41394
2022-11-07T18:31:06.295Z,-3.38886
2022-11-07T18:36:08.080Z,-2.74328
2022-11-07T18:41:09.738Z,-4.27895
2022-11-07T18:46:11.416Z,-4.00744
2022-11-07T18:51:13.058Z,-3.6013
2022-11-07T18:56:14.889Z,-4.42788
2022-11-07T19:01:16.624Z,-3.7353
2022-11-07T19:06:18.291Z,-3.06273
2022-11-07T19:11:19.931Z,-2.9119
2022-11-07T19:16:21.583Z,-3.30534
2022-11-07T19:21:23.744Z,-3.85947
2022-11-07T19:26:25.420Z,-3.32312
2022-11-07T19:31:32.016Z,-2.62419
2022-11-07T19:36:36.375Z,-3.92202
2022-11-07T19:41:38.126Z,-2.62165
2022-11-07T19:46:39.892Z,-2.73216
2022-11-07T19:51:41.556Z,-2.85124
2022-11-07T19:56:43.198Z,-3.61495
2022-11-07T20:01:54.333Z,-2.92269
2022-11-07T20:07:06.306Z,-3.26025
2022-11-07T20:12:07.946Z,-2.8595
2022-11-07T20:17:09.594Z,-2.33744
2022-11-07T20:22:11.449Z,-3.19166
2022-11-07T20:27:13.119Z,-3.40092
2022-11-07T20:32:14.753Z,-3.90424
2022-11-07T20:37:16.376Z,-3.86105
2022-11-07T20:42:18.010Z,-3.11132
2022-11-07T20:47:19.747Z,-4.28657
2022-11-07T20:52:21.956Z,-2.79789
2022-11-07T20:57:23.550Z,-2.93635
2022-11-07T21:02:25.403Z,-2.90936
2022-11-07T21:07:27.142Z,-3.74038
2022-11-07T21:12:28.918Z,-3.41998
2022-11-07T21:17:30.703Z,-3.41077
2022-11-07T21:22:32.384Z,-3.41617
2022-11-07T21:27:34.181Z,-3.85343
2022-11-07T21:32:35.809Z,-4.03952
2022-11-07T21:37:37.449Z,-4.16685
2022-11-07T21:42:39.204Z,-3.42252
2022-11-07T21:47:45.735Z,-2.39556
2022-11-07T21:52:47.852Z,-2.07324
2022-11-07T21:57:49.477Z,-1.83761
2022-11-07T22:02:51.053Z,-2.33331
2022-11-07T22:07:53.033Z,-2.52956
2022-11-07T22:12:54.623Z,-2.34062
2022-11-07T22:17:56.335Z,-3.06115
2022-11-07T22:22:58.093Z,-2.94048
2022-11-07T22:28:00.061Z,-3.19928
2022-11-07T22:33:01.667Z,-3.04971
2022-11-07T22:38:03.273Z,-2.87379
2022-11-07T22:43:05.525Z,-2.57339
2022-11-07T22:48:07.135Z,-2.72009
2022-11-07T22:53:08.830Z,-2.97668
2022-11-07T22:58:10.626Z,-3.12116
2022-11-07T23:03:13.006Z,-3.79024
2022-11-07T23:08:15.028Z,-3.82612
2022-11-07T23:13:18.020Z,-3.83406
2022-11-07T23:18:20.168Z,-3.24183
2022-11-07T23:23:28.786Z,-3.58447
2022-11-07T23:24:33.388Z,-3.76071
2022-11-07T23:26:43.822Z,-3.08369
2022-11-07T23:31:45.449Z,-2.16755
2022-11-07T23:36:47.159Z,-2.36539
2022-11-07T23:41:48.865Z,-3.07925
2022-11-07T23:46:50.474Z,-2.78773
2022-11-07T23:51:52.235Z,-3.37965
2022-11-07T23:56:53.868Z,-2.95762
